This is the latest recevied weather packets stored in our database for station/object N0EDB-13. If no packets are shown the sender has not sent any weather packets the latest 10 day(s).
| Time | Temp. | Humidity | Pressure | Rain* | Wind** | Luminosity | Snow |
|---|---|---|---|---|---|---|---|
| 1777937100 | 14.44° C | 62% | 1481.9 hPa | 0 mm | - | 95 W/m² | - |
| 1777936800 | 14.44° C | 61% | 1480.7 hPa | 0 mm | - | 101 W/m² | - |
| 1777936499 | 15.56° C | 58% | 1478 hPa | 0 mm | - | 97 W/m² | - |
| 1777936198 | 16.67° C | 45% | 1474.4 hPa | 0 mm | - | 74 W/m² | - |
| 1777935897 | 17.22° C | 42% | 1473.3 hPa | 0 mm | - | 56 W/m² | - |
| 1777935596 | 17.22° C | 40% | 1472.8 hPa | 0 mm | - | 48 W/m² | - |
| 1777935296 | 17.22° C | 39% | 1472.4 hPa | 0 mm | - | 50 W/m² | - |
| 1777934996 | 17.22° C | 38% | 1472.1 hPa | 0 mm | - | 48 W/m² | - |
| 1777934695 | 17.22° C | 39% | 1471.6 hPa | 0 mm | - | 47 W/m² | - |
| 1777934394 | 17.22° C | 39% | 1471.2 hPa | 0 mm | - | 57 W/m² | - |
| 1777934094 | 17.22° C | 39% | 1471.1 hPa | 0 mm | - | 75 W/m² | - |
| 1777933793 | 17.22° C | 41% | 1471.2 hPa | 0 mm | - | 134 W/m² | - |
| 1777933493 | 17.78° C | 40% | 1470.9 hPa | 0 mm | - | 154 W/m² | - |
| 1777933193 | 17.22° C | 41% | 1470.8 hPa | 0.25 mm | - | 199 W/m² | - |
| 1777932892 | 17.22° C | 39% | 1470.8 hPa | 0.25 mm | - | 238 W/m² | - |
| 1777932591 | 17.22° C | 41% | 1470.9 hPa | 0.25 mm | - | 241 W/m² | - |
| 1777932291 | 17.22° C | 41% | 1471.2 hPa | 0.25 mm | - | 258 W/m² | - |
| 1777931991 | 16.67° C | 43% | 1471.7 hPa | 0.25 mm | - | 292 W/m² | - |
| 1777931690 | 16.67° C | 45% | 1472.9 hPa | 0.25 mm | - | 338 W/m² | - |
| 1777931390 | 16.11° C | 47% | 1474.4 hPa | 0.25 mm | - | 411 W/m² | - |
| 1777931089 | 16.11° C | 52% | 1475 hPa | 0.25 mm | - | 282 W/m² | - |
| 1777930788 | 16.11° C | 50% | 1475.1 hPa | 0.25 mm | - | 277 W/m² | - |
| 1777930487 | 16.67° C | 48% | 1474.1 hPa | 0.25 mm | - | 238 W/m² | - |
| 1777930187 | 17.22° C | 39% | 1473.3 hPa | 0.25 mm | - | 175 W/m² | - |
| 1777929886 | 17.22° C | 40% | 1473.5 hPa | 0 mm | - | 126 W/m² | - |
* Rain latest hour (hover to see other rain measurements)
** Current wind speed in m/s (hover to see current wind gust speed)